createdAt,value
2019-05-11T00:00:12.118Z,8.80
2019-05-11T00:02:41.090Z,4.33
2019-05-11T00:05:10.492Z,6.97
2019-05-11T00:07:39.884Z,7.30
2019-05-11T00:10:09.050Z,8.43
2019-05-11T00:12:37.972Z,6.17
2019-05-11T00:15:07.741Z,5.47
2019-05-11T00:17:36.721Z,4.67
2019-05-11T00:20:05.843Z,7.07
2019-05-11T00:22:35.115Z,4.83
2019-05-11T00:25:04.478Z,5.00
2019-05-11T00:27:33.923Z,7.83
2019-05-11T00:30:03.068Z,4.50
2019-05-11T00:32:32.040Z,6.73
2019-05-11T00:35:01.579Z,6.77
2019-05-11T00:37:30.589Z,4.83
2019-05-11T00:40:13.417Z,5.13
2019-05-11T00:42:30.349Z,11.20
2019-05-11T00:44:59.673Z,4.40
2019-05-11T00:47:28.643Z,4.07
2019-05-11T00:49:57.647Z,6.10
2019-05-11T00:52:27.386Z,4.17
2019-05-11T00:54:56.453Z,4.80
2019-05-11T00:57:25.496Z,5.87
2019-05-11T00:59:54.482Z,5.47
2019-05-11T01:02:23.513Z,6.70
2019-05-11T01:04:52.897Z,6.20
2019-05-11T01:07:22.022Z,7.63
2019-05-11T01:09:51.090Z,5.70
2019-05-11T01:12:20.215Z,5.13
2019-05-11T01:14:49.225Z,8.43
2019-05-11T01:17:18.277Z,7.80
2019-05-11T01:19:47.400Z,5.20
2019-05-11T01:22:16.549Z,6.60
2019-05-11T01:24:45.801Z,8.80
2019-05-11T01:27:14.876Z,6.53
2019-05-11T01:29:43.846Z,6.93
2019-05-11T01:32:12.902Z,9.17
2019-05-11T01:34:41.874Z,8.23
2019-05-11T01:37:10.956Z,6.53
2019-05-11T01:39:40.069Z,7.13
2019-05-11T01:42:09.122Z,6.93
2019-05-11T01:44:38.161Z,8.83
2019-05-11T01:47:07.481Z,7.57
2019-05-11T01:49:36.450Z,7.03
2019-05-11T01:52:06.137Z,7.23
2019-05-11T01:54:35.308Z,5.77
2019-05-11T01:57:04.372Z,7.13
2019-05-11T01:59:33.253Z,6.90
2019-05-11T02:02:02.189Z,7.73
2019-05-11T02:04:31.280Z,5.30
2019-05-11T02:07:00.517Z,6.93
2019-05-11T02:09:29.856Z,5.20
2019-05-11T02:11:58.966Z,5.97
2019-05-11T02:14:28.300Z,8.70
2019-05-11T02:16:57.438Z,6.97
2019-05-11T02:19:26.429Z,8.53
2019-05-11T02:21:55.445Z,8.30
2019-05-11T02:24:24.673Z,7.70
2019-05-11T02:26:53.974Z,9.13
2019-05-11T02:29:22.905Z,7.60
2019-05-11T02:31:52.169Z,11.40
2019-05-11T02:34:21.107Z,8.43
2019-05-11T02:36:50.060Z,10.43
2019-05-11T02:39:18.983Z,8.40
2019-05-11T02:41:48.015Z,8.27
2019-05-11T02:44:17.330Z,7.37
2019-05-11T02:46:46.278Z,7.07
2019-05-11T02:49:15.539Z,9.57
2019-05-11T02:51:44.672Z,10.57
2019-05-11T02:54:13.876Z,8.87
2019-05-11T02:56:42.884Z,10.10
2019-05-11T02:59:11.881Z,10.17
2019-05-11T03:01:40.903Z,9.60
2019-05-11T03:04:09.838Z,10.10
2019-05-11T03:06:57.983Z,9.80
2019-05-11T03:09:27.004Z,8.13
2019-05-11T03:11:56.535Z,10.67
2019-05-11T03:14:25.681Z,10.97
2019-05-11T03:17:11.228Z,11.37
2019-05-11T03:19:40.143Z,8.27
2019-05-11T03:22:09.486Z,7.93
2019-05-11T03:24:38.674Z,10.83
2019-05-11T03:27:07.991Z,9.67
2019-05-11T03:29:37.194Z,12.00
2019-05-11T03:32:06.241Z,20.83
2019-05-11T03:34:35.490Z,19.10
2019-05-11T03:37:05.121Z,12.63
2019-05-11T03:39:34.379Z,15.00
2019-05-11T03:42:13.879Z,18.73
2019-05-11T03:44:33.986Z,12.73
2019-05-11T03:47:03.300Z,8.13
2019-05-11T03:49:32.512Z,9.97
2019-05-11T03:52:01.446Z,8.43
2019-05-11T03:54:30.937Z,9.47
2019-05-11T03:56:59.800Z,10.67
2019-05-11T03:59:28.696Z,12.30
2019-05-11T04:01:57.875Z,9.40
2019-05-11T04:04:26.811Z,8.80
2019-05-11T04:06:55.748Z,12.97
2019-05-11T04:09:25.366Z,10.77
2019-05-11T04:11:54.314Z,10.40
2019-05-11T04:14:23.367Z,8.40
2019-05-11T04:16:52.221Z,9.30
2019-05-11T04:19:21.557Z,9.13
2019-05-11T04:21:50.573Z,9.13
2019-05-11T04:24:20.984Z,8.13
2019-05-11T04:26:49.972Z,9.37
2019-05-11T04:29:18.989Z,9.00
2019-05-11T04:31:47.996Z,8.17
2019-05-11T04:34:17.550Z,8.93
2019-05-11T04:36:47.234Z,9.87
2019-05-11T04:39:16.134Z,8.33
2019-05-11T04:41:45.441Z,8.80
2019-05-11T04:44:14.493Z,8.67
2019-05-11T04:46:43.495Z,11.07
2019-05-11T04:49:12.797Z,8.10
2019-05-11T04:51:41.830Z,6.57
2019-05-11T04:54:11.354Z,9.33
2019-05-11T04:56:40.272Z,11.10
2019-05-11T04:59:09.625Z,7.20
2019-05-11T05:01:39.305Z,10.70
2019-05-11T05:04:13.716Z,12.73
2019-05-11T05:06:39.249Z,9.50
2019-05-11T05:09:08.300Z,10.50
2019-05-11T05:11:38.508Z,7.43
2019-05-11T05:14:10.334Z,11.93
2019-05-11T05:16:38.250Z,8.90
2019-05-11T05:19:07.274Z,13.13
2019-05-11T05:21:36.289Z,21.87
2019-05-11T05:24:05.606Z,16.87
2019-05-11T05:26:34.637Z,16.67
2019-05-11T05:29:03.888Z,18.07
2019-05-11T05:31:32.743Z,12.57
2019-05-11T05:34:01.933Z,9.30
2019-05-11T05:36:30.925Z,9.40
2019-05-11T05:38:59.966Z,9.03
2019-05-11T05:41:28.822Z,10.13
2019-05-11T05:43:57.769Z,8.40
2019-05-11T05:46:26.819Z,9.60
2019-05-11T05:48:55.764Z,9.63
2019-05-11T05:51:24.650Z,8.53
2019-05-11T05:53:53.587Z,10.60
2019-05-11T05:56:22.493Z,12.57
2019-05-11T05:58:51.446Z,9.13
2019-05-11T06:01:20.788Z,9.50
2019-05-11T06:03:49.728Z,7.60
2019-05-11T06:06:18.749Z,8.47
2019-05-11T06:08:47.773Z,10.20
2019-05-11T06:11:17.335Z,9.07
2019-05-11T06:13:46.384Z,7.50
2019-05-11T06:16:15.365Z,7.63
2019-05-11T06:18:44.556Z,6.13
2019-05-11T06:21:13.574Z,12.07
2019-05-11T06:23:42.922Z,5.50
2019-05-11T06:26:11.927Z,7.07
2019-05-11T06:28:40.895Z,5.87
2019-05-11T06:31:09.899Z,6.10
2019-05-11T06:33:39.667Z,6.70
2019-05-11T06:36:08.678Z,5.23
2019-05-11T06:38:43.627Z,4.03
2019-05-11T06:41:12.608Z,5.43
2019-05-11T06:43:41.561Z,7.33
2019-05-11T06:46:10.569Z,4.67
2019-05-11T06:48:39.782Z,4.03
2019-05-11T06:51:08.726Z,5.83
2019-05-11T06:53:37.749Z,9.07
2019-05-11T06:56:07.069Z,4.23
2019-05-11T06:58:36.388Z,3.97
2019-05-11T07:01:05.769Z,2.00
2019-05-11T07:03:34.805Z,3.45
2019-05-11T07:06:03.848Z,3.10
2019-05-11T07:08:32.854Z,1.67
2019-05-11T07:11:01.800Z,1.92
2019-05-11T07:13:30.742Z,5.90
2019-05-11T07:15:59.764Z,2.35
2019-05-11T07:18:29.055Z,3.50
2019-05-11T07:20:58.355Z,2.65
2019-05-11T07:23:27.277Z,2.55
2019-05-11T07:26:00.043Z,2.60
2019-05-11T07:28:27.046Z,1.65
2019-05-11T07:30:56.070Z,1.60
2019-05-11T07:33:25.014Z,2.72
2019-05-11T07:35:53.993Z,3.98
2019-05-11T07:38:22.925Z,1.98
2019-05-11T07:40:51.998Z,1.32
2019-05-11T07:43:20.873Z,1.50
2019-05-11T07:45:50.222Z,1.40
2019-05-11T07:48:19.239Z,2.40
2019-05-11T07:50:48.231Z,2.33
2019-05-11T07:53:18.643Z,2.45
2019-05-11T07:55:48.614Z,2.75
2019-05-11T07:58:20.293Z,2.77
2019-05-11T08:00:48.964Z,2.42
2019-05-11T08:03:18.218Z,2.80
2019-05-11T08:05:47.975Z,0.95
2019-05-11T08:08:18.055Z,1.62
2019-05-11T08:10:48.335Z,3.83
2019-05-11T08:13:17.928Z,2.00
2019-05-11T08:15:48.808Z,4.00
2019-05-11T08:18:18.945Z,0.82
2019-05-11T08:20:48.118Z,1.22
2019-05-11T08:23:18.067Z,1.17
2019-05-11T08:25:48.676Z,1.20
2019-05-11T08:28:18.412Z,1.35
2019-05-11T08:30:48.635Z,2.67
2019-05-11T08:33:18.290Z,1.13
2019-05-11T08:35:48.087Z,3.12
2019-05-11T08:38:18.052Z,2.25
2019-05-11T08:40:48.484Z,1.40
2019-05-11T08:43:18.068Z,2.47
2019-05-11T08:45:48.525Z,1.05
2019-05-11T08:48:18.714Z,4.65
2019-05-11T08:50:48.844Z,1.55
2019-05-11T08:53:18.114Z,2.77
2019-05-11T08:55:48.533Z,0.93
2019-05-11T08:58:19.420Z,2.25
2019-05-11T09:00:49.544Z,2.05
2019-05-11T09:03:18.492Z,1.30
2019-05-11T09:05:48.599Z,0.98
2019-05-11T09:08:18.788Z,3.02
2019-05-11T09:10:49.000Z,1.00
2019-05-11T09:13:18.701Z,1.45
2019-05-11T09:15:48.493Z,3.30
2019-05-11T09:18:18.824Z,5.72
2019-05-11T09:20:48.759Z,1.87
2019-05-11T09:23:32.949Z,2.55
2019-05-11T09:25:48.842Z,3.10
2019-05-11T09:28:18.168Z,1.37
2019-05-11T09:30:48.379Z,3.60
2019-05-11T09:33:20.682Z,2.08
2019-05-11T09:35:53.097Z,1.80
2019-05-11T09:38:19.580Z,1.42
2019-05-11T09:40:48.599Z,3.00
2019-05-11T09:43:17.996Z,1.50
2019-05-11T09:45:49.324Z,5.35
2019-05-11T09:48:18.105Z,3.67
2019-05-11T09:50:48.146Z,2.45
2019-05-11T09:53:17.868Z,2.10
2019-05-11T09:55:48.080Z,1.10
2019-05-11T09:58:19.810Z,2.27
2019-05-11T10:00:48.231Z,1.32
2019-05-11T10:03:18.645Z,4.65
2019-05-11T10:05:48.777Z,1.55
2019-05-11T10:08:18.325Z,1.25
2019-05-11T10:10:48.817Z,1.90
2019-05-11T10:13:18.574Z,2.10
2019-05-11T10:16:00.947Z,2.17
2019-05-11T10:18:18.767Z,1.37
2019-05-11T10:20:48.200Z,2.65
2019-05-11T10:23:18.569Z,2.25
2019-05-11T10:25:48.161Z,3.70
2019-05-11T10:28:17.975Z,1.50
2019-05-11T10:30:48.747Z,1.77
2019-05-11T10:33:18.893Z,1.67
2019-05-11T10:35:48.442Z,2.42
2019-05-11T10:38:17.976Z,1.57
2019-05-11T10:40:48.013Z,3.58
2019-05-11T10:43:18.403Z,2.30
2019-05-11T10:45:48.345Z,1.40
2019-05-11T10:48:17.870Z,1.35
2019-05-11T10:50:48.352Z,3.70
2019-05-11T10:53:18.516Z,1.77
2019-05-11T10:55:48.069Z,2.20
2019-05-11T10:58:18.330Z,2.37
2019-05-11T11:00:48.241Z,1.75
2019-05-11T11:03:17.905Z,3.77
2019-05-11T11:05:48.779Z,1.20
2019-05-11T11:08:18.659Z,1.87
2019-05-11T11:10:48.368Z,2.15
2019-05-11T11:13:18.777Z,1.90
2019-05-11T11:15:48.567Z,3.37
2019-05-11T11:18:18.820Z,2.12
2019-05-11T11:20:48.818Z,3.70
2019-05-11T11:23:18.172Z,2.70
2019-05-11T11:25:48.183Z,2.22
2019-05-11T11:28:17.638Z,4.35
2019-05-11T11:30:48.075Z,1.87
2019-05-11T11:33:18.383Z,1.55
2019-05-11T11:35:47.880Z,2.10
2019-05-11T11:38:18.065Z,1.70
2019-05-11T11:40:48.203Z,2.75
2019-05-11T11:43:18.070Z,2.87
2019-05-11T11:45:48.433Z,2.72
2019-05-11T11:48:18.870Z,2.25
2019-05-11T11:50:48.174Z,2.17
2019-05-11T11:53:18.771Z,2.50
2019-05-11T11:55:48.361Z,4.05
2019-05-11T11:58:23.257Z,2.22
2019-05-11T12:00:48.271Z,4.28
2019-05-11T12:03:18.555Z,4.50
2019-05-11T12:05:47.877Z,1.40
2019-05-11T12:08:18.878Z,1.72
2019-05-11T12:10:48.473Z,2.53
2019-05-11T12:13:18.693Z,1.67
2019-05-11T12:15:48.425Z,1.92
2019-05-11T12:18:18.447Z,2.50
2019-05-11T12:20:48.183Z,3.10
2019-05-11T12:23:18.067Z,1.95
2019-05-11T12:25:48.630Z,1.70
2019-05-11T12:28:18.374Z,2.58
2019-05-11T12:30:48.242Z,1.95
2019-05-11T12:33:18.772Z,1.70
2019-05-11T12:35:48.249Z,1.82
2019-05-11T12:38:18.328Z,1.52
2019-05-11T12:40:47.820Z,5.47
2019-05-11T12:43:18.605Z,1.80
2019-05-11T12:45:48.272Z,1.57
2019-05-11T12:48:18.091Z,2.30
2019-05-11T12:50:48.421Z,4.47
2019-05-11T12:53:18.576Z,1.77
2019-05-11T12:55:48.361Z,1.32
2019-05-11T12:58:18.155Z,1.52
2019-05-11T13:00:48.110Z,1.07
2019-05-11T13:03:18.732Z,5.55
2019-05-11T13:05:48.589Z,2.62
2019-05-11T13:08:18.425Z,2.15
2019-05-11T13:10:49.721Z,1.47
2019-05-11T13:13:18.845Z,2.00
2019-05-11T13:15:48.088Z,1.22
2019-05-11T13:18:18.546Z,3.13
2019-05-11T13:20:48.216Z,2.15
2019-05-11T13:23:18.517Z,1.40
2019-05-11T13:25:48.011Z,1.45
2019-05-11T13:28:17.935Z,1.85
2019-05-11T13:30:48.865Z,6.80
2019-05-11T13:33:19.100Z,1.37
2019-05-11T13:35:48.383Z,1.20
2019-05-11T13:38:17.920Z,2.33
2019-05-11T13:40:48.824Z,2.05
2019-05-11T13:43:18.837Z,3.70
2019-05-11T13:45:48.371Z,5.60
2019-05-11T13:48:17.810Z,2.95
2019-05-11T13:50:47.931Z,1.57
2019-05-11T13:53:18.382Z,4.50
2019-05-11T13:55:48.243Z,1.32
2019-05-11T13:58:19.890Z,6.28
2019-05-11T14:00:48.227Z,1.05
2019-05-11T14:03:18.399Z,2.70
2019-05-11T14:05:48.294Z,1.92
2019-05-11T14:08:18.556Z,1.62
2019-05-11T14:10:48.809Z,1.17
2019-05-11T14:13:18.322Z,4.53
2019-05-11T14:15:48.141Z,1.98
2019-05-11T14:18:18.257Z,8.08
2019-05-11T14:20:48.436Z,3.80
2019-05-11T14:23:18.351Z,2.72
2019-05-11T14:25:48.626Z,4.05
2019-05-11T14:28:18.176Z,1.15
2019-05-11T14:30:48.638Z,1.07
2019-05-11T14:33:18.276Z,2.33
2019-05-11T14:35:48.894Z,1.17
2019-05-11T14:38:18.806Z,2.70
2019-05-11T14:40:48.356Z,0.77
2019-05-11T14:43:18.825Z,1.37
2019-05-11T14:45:48.710Z,0.60
2019-05-11T14:48:24.042Z,1.90
2019-05-11T14:50:48.955Z,1.10
2019-05-11T14:53:18.193Z,0.60
2019-05-11T14:55:48.883Z,1.47
2019-05-11T14:58:19.823Z,1.80
2019-05-11T15:00:48.766Z,1.57
2019-05-11T15:03:18.365Z,3.90
2019-05-11T15:05:47.818Z,1.17
2019-05-11T15:08:18.045Z,1.10
2019-05-11T15:10:48.807Z,1.07
2019-05-11T15:13:18.592Z,0.85
2019-05-11T15:15:48.807Z,2.10
2019-05-11T15:18:18.604Z,0.87
2019-05-11T15:20:48.053Z,0.40
2019-05-11T15:23:37.835Z,1.47
2019-05-11T15:26:09.544Z,1.47
2019-05-11T15:28:38.127Z,6.37
2019-05-11T15:31:08.034Z,0.42
2019-05-11T15:33:38.278Z,1.03
2019-05-11T15:36:07.761Z,2.83
2019-05-11T15:38:37.858Z,2.93
2019-05-11T15:41:08.371Z,0.40
2019-05-11T15:43:38.711Z,0.80
2019-05-11T15:46:07.985Z,0.80
2019-05-11T15:48:53.267Z,1.33
2019-05-11T15:51:08.073Z,0.50
2019-05-11T15:53:37.394Z,1.00
2019-05-11T15:56:08.610Z,0.68
2019-05-11T15:58:38.239Z,0.73
2019-05-11T16:01:07.972Z,1.67
2019-05-11T16:03:37.343Z,1.70
2019-05-11T16:06:07.807Z,0.70
2019-05-11T16:08:37.677Z,0.73
2019-05-11T16:11:08.319Z,1.03
2019-05-11T16:13:37.865Z,1.40
2019-05-11T16:16:07.110Z,0.77
2019-05-11T16:18:36.054Z,0.97
2019-05-11T16:21:05.088Z,1.00
2019-05-11T16:23:34.293Z,1.63
2019-05-11T16:26:03.651Z,0.73
2019-05-11T16:28:32.601Z,2.50
2019-05-11T16:31:01.534Z,1.83
2019-05-11T16:33:30.480Z,0.70
2019-05-11T16:36:00.814Z,3.80
2019-05-11T16:38:30.016Z,2.42
2019-05-11T16:40:59.587Z,1.20
2019-05-11T16:43:28.620Z,1.50
2019-05-11T16:45:58.018Z,1.67
2019-05-11T16:48:27.735Z,1.57
2019-05-11T16:50:57.999Z,1.05
2019-05-11T16:53:28.419Z,1.00
2019-05-11T16:55:58.259Z,1.27
2019-05-11T16:58:27.869Z,2.87
2019-05-11T17:00:58.350Z,1.25
2019-05-11T17:03:27.928Z,1.90
2019-05-11T17:05:58.885Z,1.93
2019-05-11T17:08:27.945Z,2.07
2019-05-11T17:10:59.168Z,5.23
2019-05-11T17:13:28.509Z,2.23
2019-05-11T17:15:58.304Z,3.23
2019-05-11T17:18:28.566Z,2.63
2019-05-11T17:20:58.484Z,2.23
2019-05-11T17:23:30.616Z,1.30
2019-05-11T17:25:59.399Z,0.60
2019-05-11T17:28:28.757Z,3.10
2019-05-11T17:30:59.746Z,4.10
2019-05-11T17:33:28.767Z,1.03
2019-05-11T17:35:58.668Z,3.40
2019-05-11T17:38:28.305Z,1.03
2019-05-11T17:40:57.670Z,1.73
2019-05-11T17:43:28.123Z,1.23
2019-05-11T17:45:58.474Z,2.93
2019-05-11T17:48:28.161Z,0.53
2019-05-11T17:50:58.243Z,10.47
2019-05-11T17:53:28.619Z,0.80
2019-05-11T17:55:58.011Z,5.40
2019-05-11T17:58:27.114Z,2.67
2019-05-11T18:00:58.847Z,2.40
2019-05-11T18:03:27.868Z,0.60
2019-05-11T18:05:58.892Z,2.87
2019-05-11T18:08:30.640Z,1.27
2019-05-11T18:10:58.838Z,1.70
2019-05-11T18:13:28.455Z,8.30
2019-05-11T18:15:57.935Z,2.53
2019-05-11T18:18:29.092Z,0.80
2019-05-11T18:20:58.082Z,1.97
2019-05-11T18:23:28.262Z,2.63
2019-05-11T18:25:57.533Z,1.83
2019-05-11T18:28:28.810Z,2.70
2019-05-11T18:30:58.266Z,2.73
2019-05-11T18:33:27.834Z,2.87
2019-05-11T18:35:58.564Z,2.07
2019-05-11T18:38:27.999Z,3.47
2019-05-11T18:40:58.153Z,1.40
2019-05-11T18:43:28.189Z,2.47
2019-05-11T18:45:58.306Z,1.67
2019-05-11T18:48:29.010Z,1.73
2019-05-11T18:50:59.010Z,43.90
2019-05-11T18:53:28.915Z,2.30
2019-05-11T18:55:59.068Z,3.40
2019-05-11T18:58:28.358Z,2.10
2019-05-11T19:00:57.740Z,2.57
2019-05-11T19:03:28.120Z,2.80
2019-05-11T19:05:57.778Z,2.57
2019-05-11T19:08:28.011Z,1.40
2019-05-11T19:10:58.031Z,2.40
2019-05-11T19:13:28.101Z,1.40
2019-05-11T19:15:58.326Z,0.90
2019-05-11T19:18:28.278Z,1.63
2019-05-11T19:20:58.579Z,1.53
2019-05-11T19:23:28.638Z,1.90
2019-05-11T19:25:57.997Z,0.90
2019-05-11T19:28:28.102Z,2.00
2019-05-11T19:30:59.176Z,1.67
2019-05-11T19:33:28.100Z,2.20
2019-05-11T19:35:58.678Z,2.73
2019-05-11T19:38:28.132Z,1.40
2019-05-11T19:40:58.807Z,3.03
2019-05-11T19:43:28.091Z,3.13
2019-05-11T19:45:58.197Z,6.33
2019-05-11T19:48:27.979Z,4.30
2019-05-11T19:51:06.631Z,2.10
2019-05-11T19:53:28.326Z,2.93
2019-05-11T19:55:58.443Z,5.17
2019-05-11T19:58:28.884Z,5.63
2019-05-11T20:00:58.386Z,1.97
2019-05-11T20:03:28.533Z,3.43
2019-05-11T20:05:58.147Z,1.20
2019-05-11T20:08:29.040Z,2.57
2019-05-11T20:10:58.051Z,2.10
2019-05-11T20:13:28.380Z,3.67
2019-05-11T20:15:57.883Z,1.90
2019-05-11T20:18:28.824Z,2.40
2019-05-11T20:20:57.805Z,2.23
2019-05-11T20:23:26.755Z,2.20
2019-05-11T20:25:58.064Z,2.13
2019-05-11T20:28:28.492Z,4.00
2019-05-11T20:30:58.713Z,1.93
2019-05-11T20:33:28.116Z,2.17
2019-05-11T20:35:58.172Z,1.70
2019-05-11T20:38:27.977Z,1.73
2019-05-11T20:40:57.739Z,2.83
2019-05-11T20:43:27.922Z,3.50
2019-05-11T20:45:57.183Z,2.53
2019-05-11T20:48:29.150Z,4.00
2019-05-11T20:50:58.186Z,2.13
2019-05-11T20:53:28.753Z,3.87
2019-05-11T20:55:58.265Z,2.13
2019-05-11T20:58:28.881Z,2.10
2019-05-11T21:00:59.140Z,6.67
2019-05-11T21:03:28.203Z,4.37
2019-05-11T21:05:58.613Z,1.93
2019-05-11T21:08:28.375Z,2.27
2019-05-11T21:10:58.283Z,5.20
2019-05-11T21:13:28.248Z,2.93
2019-05-11T21:15:59.242Z,2.93
2019-05-11T21:18:28.767Z,4.07
2019-05-11T21:20:57.870Z,4.03
2019-05-11T21:23:28.936Z,4.00
2019-05-11T21:25:58.086Z,4.10
2019-05-11T21:28:30.334Z,4.00
2019-05-11T21:30:58.509Z,5.33
2019-05-11T21:33:28.323Z,4.17
2019-05-11T21:35:58.068Z,3.90
2019-05-11T21:38:31.522Z,3.73
2019-05-11T21:40:59.040Z,4.73
2019-05-11T21:43:27.986Z,4.83
2019-05-11T21:45:58.189Z,5.17
2019-05-11T21:48:28.041Z,7.57
2019-05-11T21:50:59.707Z,7.43
2019-05-11T21:53:28.751Z,6.83
2019-05-11T21:55:58.564Z,8.07
2019-05-11T21:58:28.587Z,6.77
2019-05-11T22:00:57.756Z,8.53
2019-05-11T22:03:28.076Z,3.80
2019-05-11T22:05:57.864Z,4.47
2019-05-11T22:08:28.363Z,3.83
2019-05-11T22:10:59.931Z,5.30
2019-05-11T22:13:28.896Z,6.93
2019-05-11T22:15:58.378Z,4.93
2019-05-11T22:18:31.164Z,7.73
2019-05-11T22:20:58.214Z,5.43
2019-05-11T22:23:28.231Z,7.80
2019-05-11T22:25:58.753Z,6.17
2019-05-11T22:28:28.551Z,6.30
2019-05-11T22:30:57.685Z,6.37
2019-05-11T22:33:28.364Z,5.53
2019-05-11T22:35:58.729Z,6.80
2019-05-11T22:38:30.196Z,6.33
2019-05-11T22:40:59.121Z,9.73
2019-05-11T22:43:28.521Z,7.13
2019-05-11T22:45:58.182Z,6.00
2019-05-11T22:48:27.316Z,7.13
2019-05-11T22:50:58.477Z,6.17
2019-05-11T22:53:43.424Z,6.60
2019-05-11T22:55:58.092Z,7.10
2019-05-11T22:58:27.066Z,7.47
2019-05-11T23:00:59.557Z,8.00
2019-05-11T23:03:27.835Z,8.47
2019-05-11T23:05:58.226Z,7.43
2019-05-11T23:08:27.657Z,9.57
2019-05-11T23:10:56.677Z,8.17
2019-05-11T23:13:27.758Z,8.47
2019-05-11T23:15:58.283Z,9.13
2019-05-11T23:18:28.629Z,8.73
2019-05-11T23:20:58.434Z,8.43
2019-05-11T23:23:28.455Z,11.03
2019-05-11T23:25:57.967Z,12.23
2019-05-11T23:28:28.810Z,8.60
2019-05-11T23:30:58.396Z,10.50
2019-05-11T23:33:27.994Z,10.17
2019-05-11T23:35:58.745Z,10.67
2019-05-11T23:38:28.282Z,10.00
2019-05-11T23:40:58.731Z,8.67
2019-05-11T23:43:29.980Z,9.83
2019-05-11T23:45:58.605Z,8.90
2019-05-11T23:48:28.099Z,12.00
2019-05-11T23:50:58.008Z,9.47
2019-05-11T23:53:38.612Z,8.37
2019-05-11T23:56:07.066Z,10.07
2019-05-11T23:58:35.917Z,11.20
